Time;durP1;ratioP1;P1;durP2;ratioP2;P2;SDS_P1;SDS_P2;PMS_P1;PMS_P2;Temp;Humidity;BMP_temperature;BMP_pressure;BME280_temperature;BME280_humidity;BME280_pressure;Samples;Min_cycle;Max_cycle;Signal;HPM_P1;HPM_P2
2023/03/31 00:02:13;;;;;;;2.50;1.00;;;10.30;99.90;;;;;;7723674;28;20204;-87
2023/03/31 00:06:00;;;;;;;3.60;1.20;;;10.10;99.90;;;;;;7725426;28;20197;-86
2023/03/31 00:09:45;;;;;;;1.73;1.10;;;10.10;99.90;;;;;;7712424;28;20666;-86
2023/03/31 00:13:31;;;;;;;3.20;1.00;;;10.10;99.90;;;;;;7725949;28;20247;-86
2023/03/31 00:17:17;;;;;;;2.23;1.20;;;10.10;99.90;;;;;;7724773;28;20651;-85
2023/03/31 00:21:32;;;;;;;2.43;1.10;;;10.10;99.90;;;;;;7721622;28;20233;-87
2023/03/31 00:25:18;;;;;;;3.50;1.00;;;10.20;99.90;;;;;;7726390;28;20635;-86
2023/03/31 00:29:05;;;;;;;5.00;1.20;;;10.10;99.90;;;;;;7731492;28;20317;-85
2023/03/31 00:32:52;;;;;;;4.03;1.17;;;10.20;99.90;;;;;;7725912;28;20239;-86
2023/03/31 00:36:44;;;;;;;5.57;1.33;;;10.20;99.90;;;;;;7729377;28;20211;-85
2023/03/31 00:40:30;;;;;;;4.50;1.20;;;10.20;99.90;;;;;;7725074;28;20531;-86
2023/03/31 00:44:23;;;;;;;4.50;1.07;;;10.20;99.90;;;;;;7723685;28;20197;-86
2023/03/31 00:48:17;;;;;;;7.53;1.67;;;10.20;99.90;;;;;;7724004;28;20195;-86
2023/03/31 00:52:25;;;;;;;4.77;2.40;;;10.20;99.90;;;;;;7718438;28;20224;-86
2023/03/31 00:56:14;;;;;;;5.37;1.10;;;10.20;99.90;;;;;;7733416;28;20199;-85
2023/03/31 01:00:15;;;;;;;3.77;1.30;;;10.20;99.90;;;;;;7718993;28;20501;-86
2023/03/31 01:04:03;;;;;;;1.93;1.10;;;10.20;99.90;;;;;;7721725;28;20224;-87
2023/03/31 01:07:50;;;;;;;2.13;1.00;;;10.20;99.90;;;;;;7721321;28;20197;-86
2023/03/31 01:11:36;;;;;;;5.87;1.10;;;10.10;99.90;;;;;;7728183;28;20226;-86
2023/03/31 01:15:22;;;;;;;5.07;1.23;;;10.20;99.90;;;;;;7723138;28;20216;-86
2023/03/31 01:19:19;;;;;;;2.53;1.07;;;10.10;99.90;;;;;;7735470;28;20224;-86
2023/03/31 01:23:33;;;;;;;3.00;0.90;;;10.20;99.90;;;;;;7725044;28;20256;-85
2023/03/31 01:27:44;;;;;;;3.03;1.00;;;10.10;99.90;;;;;;7738076;28;20259;-85
2023/03/31 01:31:57;;;;;;;3.73;1.10;;;10.10;99.90;;;;;;7740843;28;20226;-86
2023/03/31 01:36:03;;;;;;;3.97;1.27;;;10.10;99.90;;;;;;7745095;28;20200;-85
2023/03/31 01:40:08;;;;;;;2.37;1.00;;;10.10;99.90;;;;;;7733229;28;20675;-86
2023/03/31 01:44:28;;;;;;;5.13;1.27;;;10.10;99.90;;;;;;7720367;28;20209;-86
2023/03/31 01:48:19;;;;;;;8.13;1.37;;;10.10;99.90;;;;;;7725864;28;20196;-86
2023/03/31 01:52:11;;;;;;;5.47;1.20;;;10.10;99.90;;;;;;7730391;28;20216;-86
2023/03/31 01:56:06;;;;;;;3.57;1.57;;;10.10;99.90;;;;;;7720380;28;20201;-86
2023/03/31 02:00:07;;;;;;;4.77;1.23;;;10.00;99.90;;;;;;7721223;28;20744;-86
2023/03/31 02:03:59;;;;;;;6.27;1.40;;;10.00;99.90;;;;;;7742789;28;20217;-85
2023/03/31 02:08:03;;;;;;;5.73;1.00;;;10.00;99.90;;;;;;7718939;28;20207;-84
2023/03/31 02:11:50;;;;;;;5.77;1.10;;;10.00;99.90;;;;;;7728773;28;20217;-86
2023/03/31 02:15:41;;;;;;;4.47;1.47;;;9.90;99.90;;;;;;7724142;28;20200;-85
2023/03/31 02:19:36;;;;;;;2.83;0.90;;;9.90;99.90;;;;;;7727312;28;20224;-85
2023/03/31 02:23:25;;;;;;;3.73;1.00;;;9.90;99.90;;;;;;7728664;28;20254;-87
2023/03/31 02:27:27;;;;;;;3.63;1.73;;;9.90;99.90;;;;;;7726211;28;20671;-87
2023/03/31 02:31:37;;;;;;;4.60;1.10;;;9.90;99.90;;;;;;7728121;28;20697;-86
2023/03/31 02:35:24;;;;;;;6.30;1.30;;;9.80;99.90;;;;;;7715463;28;20209;-86
2023/03/31 02:39:13;;;;;;;6.80;1.33;;;9.80;99.90;;;;;;7725891;28;20227;-86
2023/03/31 02:42:59;;;;;;;3.27;1.27;;;9.70;99.90;;;;;;7728937;28;20216;-85
2023/03/31 02:46:45;;;;;;;7.17;1.37;;;9.80;99.90;;;;;;7717492;28;20721;-86
2023/03/31 02:51:02;;;;;;;4.00;1.10;;;9.70;99.90;;;;;;7727993;28;20200;-86
2023/03/31 02:55:07;;;;;;;3.70;1.10;;;9.70;99.90;;;;;;7717709;28;20200;-87
2023/03/31 02:59:01;;;;;;;6.17;1.23;;;9.70;99.90;;;;;;7723927;28;20224;-86
2023/03/31 03:03:01;;;;;;;4.40;0.90;;;9.70;99.90;;;;;;7729110;28;20311;-86
2023/03/31 03:06:56;;;;;;;6.33;1.20;;;9.70;99.90;;;;;;7721045;28;20192;-86
2023/03/31 03:11:16;;;;;;;4.40;1.20;;;9.70;99.90;;;;;;7754300;28;20204;-86
2023/03/31 03:15:05;;;;;;;3.70;1.27;;;9.70;99.90;;;;;;7723022;28;20212;-86
2023/03/31 03:18:59;;;;;;;3.90;0.90;;;9.70;99.90;;;;;;7726435;28;20247;-85
2023/03/31 03:22:45;;;;;;;8.10;1.20;;;9.70;99.90;;;;;;7738401;28;20231;-86
2023/03/31 03:26:34;;;;;;;3.10;1.13;;;9.70;99.90;;;;;;7728122;28;20685;-86
2023/03/31 03:30:19;;;;;;;4.00;1.00;;;9.70;99.90;;;;;;7726234;28;20276;-86
2023/03/31 03:34:05;;;;;;;5.43;1.17;;;9.70;99.90;;;;;;7727070;28;20220;-85
2023/03/31 03:37:51;;;;;;;6.70;1.50;;;9.70;99.90;;;;;;7726944;28;20197;-86
2023/03/31 03:41:37;;;;;;;6.43;1.20;;;9.70;99.90;;;;;;7726489;28;20232;-86
2023/03/31 03:45:23;;;;;;;3.27;1.37;;;9.70;99.90;;;;;;7718802;28;20189;-86
2023/03/31 03:49:08;;;;;;;3.73;1.37;;;9.70;99.90;;;;;;7717687;28;20192;-86
2023/03/31 03:52:54;;;;;;;6.27;1.50;;;9.70;99.90;;;;;;7727016;28;20228;-86
2023/03/31 03:56:40;;;;;;;6.47;1.67;;;9.80;99.90;;;;;;7733768;28;20258;-86
2023/03/31 04:00:25;;;;;;;6.57;1.40;;;9.80;99.90;;;;;;7722296;28;20219;-85
2023/03/31 04:04:12;;;;;;;6.17;1.10;;;9.80;99.90;;;;;;7714463;28;20192;-86
2023/03/31 04:07:58;;;;;;;4.60;1.30;;;9.80;99.90;;;;;;7725255;28;20205;-86
2023/03/31 04:11:43;;;;;;;5.10;1.40;;;9.80;99.90;;;;;;7723614;28;20291;-86
2023/03/31 04:15:29;;;;;;;7.53;1.60;;;9.80;99.90;;;;;;7724045;28;20260;-85
2023/03/31 04:19:17;;;;;;;4.27;1.23;;;9.90;99.90;;;;;;7741641;28;20215;-86
2023/03/31 04:23:08;;;;;;;4.77;1.30;;;9.90;99.90;;;;;;7726301;28;20283;-86
2023/03/31 04:26:55;;;;;;;7.07;1.20;;;9.90;99.90;;;;;;7729731;28;20197;-85
2023/03/31 04:30:41;;;;;;;5.23;1.03;;;9.90;99.90;;;;;;7730756;28;20189;-86
2023/03/31 04:34:33;;;;;;;4.83;1.20;;;9.90;99.90;;;;;;7725832;28;20192;-87
2023/03/31 04:38:22;;;;;;;6.10;1.60;;;9.80;99.90;;;;;;7722747;28;20196;-87
2023/03/31 04:42:07;;;;;;;4.70;1.30;;;9.80;99.90;;;;;;7720292;28;20216;-85
2023/03/31 04:45:53;;;;;;;8.10;1.47;;;9.80;99.90;;;;;;7715655;28;20211;-86
2023/03/31 04:49:39;;;;;;;4.87;1.10;;;9.80;99.90;;;;;;7710515;28;20205;-86
2023/03/31 04:53:25;;;;;;;6.77;1.10;;;9.80;99.90;;;;;;7712552;28;21118;-87
2023/03/31 04:57:10;;;;;;;5.03;1.20;;;9.70;99.90;;;;;;7747959;28;20197;-86
2023/03/31 05:00:57;;;;;;;3.80;1.30;;;9.70;99.90;;;;;;7749102;28;20268;-85
2023/03/31 05:04:42;;;;;;;3.67;1.60;;;9.80;99.90;;;;;;7719774;28;20227;-86
2023/03/31 05:08:28;;;;;;;7.57;1.57;;;9.70;99.90;;;;;;7712983;28;20196;-85
2023/03/31 05:12:14;;;;;;;4.93;1.00;;;9.80;99.90;;;;;;7723315;28;20225;-87
2023/03/31 05:16:06;;;;;;;6.20;2.33;;;9.80;99.90;;;;;;7723382;28;20210;-87
2023/03/31 05:19:52;;;;;;;6.50;1.30;;;9.80;99.90;;;;;;7726493;28;20787;-86
2023/03/31 05:23:38;;;;;;;7.90;1.50;;;9.80;99.90;;;;;;7739775;28;20224;-87
2023/03/31 05:27:23;;;;;;;4.20;1.30;;;9.80;99.90;;;;;;7736542;28;20200;-87
2023/03/31 05:31:11;;;;;;;4.97;1.30;;;9.80;99.90;;;;;;7731573;28;20216;-85
2023/03/31 05:34:57;;;;;;;5.37;1.03;;;9.90;99.90;;;;;;7713407;28;20269;-87
2023/03/31 05:38:43;;;;;;;3.23;1.10;;;9.90;99.90;;;;;;7728727;28;20207;-84
2023/03/31 05:42:30;;;;;;;5.40;1.40;;;9.90;99.90;;;;;;7725714;28;20875;-86
2023/03/31 05:46:17;;;;;;;6.00;0.90;;;9.90;99.90;;;;;;7750297;28;20736;-86
2023/03/31 05:50:06;;;;;;;3.03;1.20;;;9.90;99.90;;;;;;7743949;28;20197;-86
2023/03/31 05:53:52;;;;;;;4.47;1.40;;;9.90;99.90;;;;;;7734937;28;20571;-86
2023/03/31 05:57:37;;;;;;;5.83;1.57;;;9.90;99.90;;;;;;7759255;28;20180;-87
2023/03/31 06:01:23;;;;;;;5.93;1.43;;;9.90;99.90;;;;;;7710053;28;20288;-87
2023/03/31 06:05:09;;;;;;;6.33;1.20;;;10.00;99.90;;;;;;7706067;28;20616;-86
2023/03/31 06:08:55;;;;;;;2.87;1.23;;;10.00;99.90;;;;;;7755531;28;20184;-87
2023/03/31 06:12:42;;;;;;;3.23;1.00;;;10.10;99.90;;;;;;7769909;28;20219;-87
2023/03/31 06:16:28;;;;;;;5.47;1.70;;;10.10;99.90;;;;;;7753737;28;20211;-87
2023/03/31 06:20:14;;;;;;;7.73;1.47;;;10.10;99.90;;;;;;7771747;28;20216;-86
2023/03/31 06:24:00;;;;;;;4.37;1.40;;;10.10;99.90;;;;;;7754771;28;20567;-85
2023/03/31 06:27:47;;;;;;;5.30;1.70;;;10.20;99.90;;;;;;7768630;28;20283;-87
2023/03/31 06:31:32;;;;;;;4.47;1.90;;;10.20;99.90;;;;;;7745985;28;20220;-87
2023/03/31 06:35:18;;;;;;;5.40;1.70;;;10.30;99.90;;;;;;7733078;28;20275;-87
2023/03/31 06:39:04;;;;;;;8.27;2.37;;;10.30;99.90;;;;;;7723517;28;20216;-87
2023/03/31 06:42:49;;;;;;;5.90;1.93;;;10.30;99.90;;;;;;7724010;28;20205;-87
2023/03/31 06:46:35;;;;;;;3.67;1.50;;;10.30;99.90;;;;;;7732890;28;20205;-86
2023/03/31 06:50:21;;;;;;;4.30;1.80;;;10.30;99.90;;;;;;7757236;28;20184;-85
2023/03/31 06:54:06;;;;;;;8.30;1.90;;;10.30;99.90;;;;;;7725906;28;20259;-86
2023/03/31 06:57:52;;;;;;;8.37;1.50;;;10.30;99.90;;;;;;7724774;28;20208;-85
2023/03/31 07:01:41;;;;;;;8.90;2.53;;;10.30;99.90;;;;;;7738031;28;20219;-93
2023/03/31 07:05:27;;;;;;;5.40;1.97;;;10.30;99.90;;;;;;7727183;28;20192;-84
2023/03/31 07:09:13;;;;;;;4.87;1.33;;;10.40;99.90;;;;;;7709511;28;20201;-86
2023/03/31 07:12:58;;;;;;;7.93;1.27;;;10.50;99.90;;;;;;7728230;28;20216;-84
2023/03/31 07:16:44;;;;;;;5.13;1.70;;;10.70;99.90;;;;;;7720756;28;20192;-89
2023/03/31 07:20:31;;;;;;;3.43;1.60;;;10.80;99.90;;;;;;7744239;28;20252;-82
2023/03/31 07:24:17;;;;;;;5.70;1.90;;;10.90;99.90;;;;;;7745281;28;20275;-81
2023/03/31 07:28:03;;;;;;;5.53;1.87;;;10.90;99.90;;;;;;7719613;28;20185;-87
2023/03/31 07:31:49;;;;;;;5.00;1.87;;;10.90;99.90;;;;;;7691328;29;20209;-88
2023/03/31 07:35:40;;;;;;;5.87;1.87;;;10.90;99.90;;;;;;7719737;28;20256;-87
2023/03/31 07:39:25;;;;;;;9.37;1.80;;;10.90;99.90;;;;;;7735420;28;20312;-87
2023/03/31 07:43:11;;;;;;;6.57;2.17;;;10.80;99.90;;;;;;7753087;28;20212;-88
2023/03/31 07:47:03;;;;;;;5.70;2.23;;;10.80;99.90;;;;;;7750509;28;20176;-88
2023/03/31 07:50:50;;;;;;;3.97;1.70;;;10.80;99.90;;;;;;7749528;28;20642;-88
2023/03/31 07:54:36;;;;;;;8.73;2.80;;;11.00;99.90;;;;;;7740476;28;20189;-88
2023/03/31 07:58:21;;;;;;;6.00;2.23;;;11.20;99.90;;;;;;7722241;28;20191;-88
2023/03/31 08:02:11;;;;;;;8.93;2.30;;;11.50;99.90;;;;;;7732628;28;20213;-88
2023/03/31 08:05:58;;;;;;;6.03;2.40;;;11.70;99.90;;;;;;7741092;28;20180;-91
2023/03/31 08:09:45;;;;;;;8.67;2.73;;;11.70;99.90;;;;;;7746899;28;20219;-88
2023/03/31 08:13:31;;;;;;;6.43;2.57;;;11.70;99.90;;;;;;7746795;28;20218;-89
2023/03/31 08:17:16;;;;;;;6.00;2.70;;;11.60;99.90;;;;;;7749236;28;20192;-89
2023/03/31 08:21:02;;;;;;;7.93;2.80;;;11.60;99.90;;;;;;7727571;28;20224;-89
2023/03/31 08:24:48;;;;;;;10.27;2.20;;;11.50;99.90;;;;;;7718082;28;20205;-88
2023/03/31 08:28:33;;;;;;;5.63;2.67;;;11.50;99.90;;;;;;7719415;28;20184;-89
2023/03/31 08:32:23;;;;;;;5.97;3.03;;;11.50;99.90;;;;;;7745382;28;20600;-88
2023/03/31 08:36:09;;;;;;;11.90;4.07;;;11.50;99.90;;;;;;7746662;28;20192;-88
2023/03/31 08:39:55;;;;;;;6.37;2.90;;;11.50;99.90;;;;;;7786662;28;20200;-88
2023/03/31 08:43:44;;;;;;;7.90;3.27;;;11.50;99.90;;;;;;7758226;28;20278;-88
2023/03/31 08:47:32;;;;;;;7.47;3.07;;;11.60;99.90;;;;;;7751811;28;20196;-88
2023/03/31 08:51:26;;;;;;;6.63;3.10;;;11.50;99.90;;;;;;7751779;28;20222;-88
2023/03/31 08:55:31;;;;;;;6.60;3.27;;;11.50;99.90;;;;;;7737685;28;20197;-88
2023/03/31 08:59:36;;;;;;;6.43;3.30;;;11.50;99.90;;;;;;7721949;28;20209;-89
2023/03/31 09:03:32;;;;;;;5.70;3.10;;;11.40;99.90;;;;;;7721437;28;20267;-89
2023/03/31 09:07:33;;;;;;;7.80;4.00;;;11.40;99.90;;;;;;7721068;28;20184;-89
2023/03/31 09:11:25;;;;;;;12.23;3.70;;;11.40;99.90;;;;;;7720623;28;20214;-88
2023/03/31 09:15:21;;;;;;;7.43;4.30;;;11.40;99.90;;;;;;7720927;28;20718;-90
2023/03/31 09:19:22;;;;;;;10.23;4.20;;;11.30;99.90;;;;;;7723112;28;20212;-87
2023/03/31 09:23:32;;;;;;;11.17;5.20;;;11.30;99.90;;;;;;7723937;28;20230;-86
2023/03/31 09:27:18;;;;;;;8.77;5.00;;;11.30;99.90;;;;;;7725126;28;20239;-88
2023/03/31 09:31:12;;;;;;;12.13;5.37;;;11.20;99.90;;;;;;7723355;28;20596;-87
2023/03/31 09:35:20;;;;;;;11.87;5.40;;;11.20;99.90;;;;;;7724258;28;20273;-89
2023/03/31 09:39:14;;;;;;;15.10;6.10;;;11.20;99.90;;;;;;7723886;28;20228;-88
2023/03/31 09:43:04;;;;;;;10.63;2.97;;;11.20;99.90;;;;;;7724446;28;20209;-88
2023/03/31 09:46:51;;;;;;;7.73;3.20;;;11.20;99.90;;;;;;7723321;28;20181;-88
2023/03/31 09:50:51;;;;;;;6.77;3.30;;;11.30;99.90;;;;;;7734281;28;20288;-89
2023/03/31 09:54:45;;;;;;;7.63;2.40;;;11.40;99.90;;;;;;7747528;28;20196;-89
2023/03/31 09:58:38;;;;;;;7.07;5.10;;;11.50;99.90;;;;;;7747342;28;20196;-89
2023/03/31 10:02:35;;;;;;;12.60;6.50;;;11.50;99.90;;;;;;7747710;28;20239;-89
2023/03/31 10:06:22;;;;;;;12.10;7.37;;;11.40;99.90;;;;;;7748928;28;20210;-88
2023/03/31 10:10:17;;;;;;;11.97;7.13;;;11.40;99.90;;;;;;7765583;28;20589;-83
2023/03/31 10:14:12;;;;;;;10.53;7.33;;;11.40;99.90;;;;;;7754736;28;20211;-83
2023/03/31 10:17:58;;;;;;;11.77;7.80;;;11.30;99.90;;;;;;7755077;28;20209;-83
2023/03/31 10:21:46;;;;;;;10.80;7.37;;;11.30;99.90;;;;;;7753894;28;20559;-85
